Time;durP1;ratioP1;P1;durP2;ratioP2;P2;SDS_P1;SDS_P2;PMS_P1;PMS_P2;Temp;Humidity;BMP_temperature;BMP_pressure;BME280_temperature;BME280_humidity;BME280_pressure;Samples;Min_cycle;Max_cycle;Signal;HPM_P1;HPM_P2
2022/10/12 00:00:21;;;;;;;6.22;2.65;;;;;;;6.52;70.93;100750.38;1794698;80;21173;-77
2022/10/12 00:03:28;;;;;;;3.20;2.12;;;;;;;6.59;70.87;100748.34;1795324;80;21233;-78
2022/10/12 00:06:33;;;;;;;4.50;2.40;;;;;;;6.59;70.70;100746.98;1795505;80;21166;-78
2022/10/12 00:09:40;;;;;;;4.35;2.10;;;;;;;6.64;70.57;100749.28;1794840;80;21229;-78
2022/10/12 00:12:45;;;;;;;3.35;2.22;;;;;;;6.55;70.85;100752.33;1793850;79;21189;-78
2022/10/12 00:15:52;;;;;;;7.60;2.60;;;;;;;6.53;71.04;100750.73;1794440;80;21196;-77
2022/10/12 00:19:02;;;;;;;4.90;2.70;;;;;;;6.41;71.22;100752.72;1795375;80;21189;-77
2022/10/12 00:22:07;;;;;;;4.22;2.50;;;;;;;6.44;71.24;100757.00;1795562;80;21181;-77
2022/10/12 00:25:14;;;;;;;4.55;2.20;;;;;;;6.51;70.95;100769.05;1795336;80;21169;-78
2022/10/12 00:28:20;;;;;;;7.83;2.95;;;;;;;6.32;71.32;100769.35;1795409;80;21776;-78
2022/10/12 00:31:27;;;;;;;4.97;2.55;;;;;;;6.51;71.01;100771.77;1793952;79;21220;-78
2022/10/12 00:34:33;;;;;;;4.70;2.50;;;;;;;6.29;71.89;100779.13;1795410;80;21172;-78
2022/10/12 00:37:39;;;;;;;7.33;2.98;;;;;;;6.38;71.51;100773.38;1795363;80;21811;-77
2022/10/12 00:40:45;;;;;;;4.22;2.70;;;;;;;6.19;71.87;100772.80;1795354;80;21173;-77
2022/10/12 00:43:51;;;;;;;7.35;2.27;;;;;;;6.24;71.76;100771.89;1795520;80;21177;-77
2022/10/12 00:46:58;;;;;;;4.58;2.58;;;;;;;6.22;72.06;100776.61;1795286;80;21174;-78
2022/10/12 00:50:24;;;;;;;4.85;2.60;;;;;;;6.17;72.22;100776.16;1794089;80;21209;-78
2022/10/12 00:53:32;;;;;;;9.60;2.80;;;;;;;6.15;72.21;100778.99;1793990;80;21173;-78
2022/10/12 00:56:40;;;;;;;5.60;2.52;;;;;;;6.24;71.91;100781.39;1796484;80;21145;-77
2022/10/12 01:00:02;;;;;;;6.10;2.75;;;;;;;6.25;71.60;100781.75;1794679;80;21209;-78
2022/10/12 01:03:07;;;;;;;9.18;3.12;;;;;;;6.23;71.31;100783.76;1800891;79;21177;-78
2022/10/12 01:06:13;;;;;;;4.62;2.90;;;;;;;6.08;71.55;100783.77;1802698;79;21716;-77
2022/10/12 01:09:19;;;;;;;6.87;3.05;;;;;;;5.88;72.03;100784.11;1801937;79;21219;-78
2022/10/12 01:12:27;;;;;;;6.55;2.87;;;;;;;5.76;72.29;100785.20;1802584;79;21221;-78
2022/10/12 01:15:37;;;;;;;3.72;2.80;;;;;;;5.70;72.37;100787.97;1802204;79;21264;-77
2022/10/12 01:18:51;;;;;;;8.53;2.92;;;;;;;5.61;72.56;100780.62;1802648;79;21185;-77
2022/10/12 01:22:03;;;;;;;9.78;3.65;;;;;;;5.52;72.85;100784.12;1801163;79;21192;-77
2022/10/12 01:25:30;;;;;;;9.05;2.98;;;;;;;5.49;72.94;100787.09;1801138;79;21185;-77
2022/10/12 01:29:10;;;;;;;5.70;2.92;;;;;;;5.51;73.12;100787.84;1802489;79;21158;-78
2022/10/12 01:32:48;;;;;;;8.90;3.05;;;;;;;5.51;72.91;100776.98;1801562;79;21260;-78
2022/10/12 01:36:15;;;;;;;6.30;3.17;;;;;;;5.43;73.14;100779.48;1802681;79;21165;-78
2022/10/12 01:39:50;;;;;;;9.83;3.45;;;;;;;5.29;73.54;100781.52;1802131;79;21224;-77
2022/10/12 01:42:56;;;;;;;8.65;3.20;;;;;;;5.36;73.20;100784.09;1802706;79;22489;-77
2022/10/12 01:46:02;;;;;;;5.12;2.92;;;;;;;5.27;73.29;100779.45;1802257;79;21216;-77
2022/10/12 01:49:08;;;;;;;10.90;2.98;;;;;;;5.16;73.56;100779.98;1802495;79;21177;-77
2022/10/12 01:52:35;;;;;;;8.18;3.25;;;;;;;5.13;73.75;100772.98;1802645;79;21193;-77
2022/10/12 01:55:49;;;;;;;12.60;3.58;;;;;;;5.04;74.09;100770.55;1802673;79;21704;-77
2022/10/12 01:59:37;;;;;;;11.97;3.30;;;;;;;4.97;74.29;100773.90;1802780;79;21255;-78
2022/10/12 02:03:00;;;;;;;8.18;2.72;;;;;;;5.10;74.12;100774.09;1802334;79;21610;-77
2022/10/12 02:06:24;;;;;;;4.22;2.90;;;;;;;5.08;74.18;100781.52;1809771;79;21224;-77
2022/10/12 02:09:35;;;;;;;12.68;5.20;;;;;;;5.09;74.18;100775.59;1810613;79;21807;-78
2022/10/12 02:12:41;;;;;;;12.28;2.87;;;;;;;5.03;74.14;100774.73;1811714;79;21173;-77
2022/10/12 02:15:46;;;;;;;13.62;3.47;;;;;;;4.85;74.65;100771.24;1811131;79;21176;-77
2022/10/12 02:18:56;;;;;;;8.08;3.60;;;;;;;4.93;74.38;100777.85;1809597;79;21220;-77
2022/10/12 02:22:05;;;;;;;14.07;4.37;;;;;;;4.91;73.95;100777.14;1809601;79;21762;-78
2022/10/12 02:25:14;;;;;;;6.33;2.98;;;;;;;4.83;74.32;100779.98;1811894;79;21212;-78
2022/10/12 02:28:22;;;;;;;11.10;3.20;;;;;;;4.79;74.43;100785.78;1811263;79;21170;-78
2022/10/12 02:31:43;;;;;;;7.85;3.10;;;;;;;4.87;74.33;100784.16;1811344;79;21220;-77
2022/10/12 02:35:20;;;;;;;5.67;2.85;;;;;;;4.87;74.28;100786.87;1809711;79;21726;-77
2022/10/12 02:38:31;;;;;;;5.92;2.92;;;;;;;4.86;74.28;100782.94;1811039;79;21179;-77
2022/10/12 02:41:39;;;;;;;4.92;2.77;;;;;;;4.88;74.33;100788.58;1809655;79;21173;-77
2022/10/12 02:44:45;;;;;;;9.85;3.00;;;;;;;4.91;74.35;100792.05;1811172;79;21181;-77
2022/10/12 02:47:52;;;;;;;6.00;2.58;;;;;;;4.94;74.29;100795.83;1810121;79;21526;-78
2022/10/12 02:51:01;;;;;;;5.12;3.17;;;;;;;4.96;74.46;100797.94;1810192;79;21216;-77
2022/10/12 02:54:06;;;;;;;4.28;2.87;;;;;;;4.99;74.25;100793.63;1811370;79;21204;-78
2022/10/12 02:57:12;;;;;;;8.13;3.00;;;;;;;5.02;74.18;100797.42;1787275;79;21177;-77
2022/10/12 03:00:19;;;;;;;4.12;2.77;;;;;;;5.11;73.90;100793.93;1810694;79;21213;-78
2022/10/12 03:03:25;;;;;;;10.00;3.75;;;;;;;4.94;74.05;100794.02;1808306;79;21217;-78
2022/10/12 03:06:32;;;;;;;7.08;3.35;;;;;;;4.95;74.33;100798.94;1811152;79;21228;-78
2022/10/12 03:09:38;;;;;;;6.45;3.40;;;;;;;5.02;74.08;100799.63;1810466;79;21232;-78
2022/10/12 03:12:43;;;;;;;8.10;3.27;;;;;;;5.00;74.29;100804.83;1810941;79;21177;-78
2022/10/12 03:15:49;;;;;;;5.45;3.50;;;;;;;5.04;74.23;100799.02;1811046;79;21181;-78
2022/10/12 03:18:55;;;;;;;5.33;3.37;;;;;;;5.00;74.21;100805.69;1809565;79;21200;-78
2022/10/12 03:22:01;;;;;;;6.05;3.33;;;;;;;5.00;74.46;100804.83;1809742;79;21250;-78
2022/10/12 03:25:08;;;;;;;5.30;3.00;;;;;;;5.02;74.43;100798.77;1809473;79;21188;-78
2022/10/12 03:28:13;;;;;;;5.42;2.90;;;;;;;5.03;74.32;100805.41;1810887;79;21180;-78
2022/10/12 03:31:20;;;;;;;5.83;3.33;;;;;;;4.95;74.42;100804.36;1810399;79;21165;-77
2022/10/12 03:34:25;;;;;;;6.05;3.42;;;;;;;4.93;74.49;100807.17;1811221;79;21164;-77
2022/10/12 03:37:32;;;;;;;6.95;3.33;;;;;;;4.89;74.55;100809.77;1811420;79;21232;-77
2022/10/12 03:40:39;;;;;;;4.95;3.12;;;;;;;4.85;74.68;100807.84;1810985;79;21216;-77
2022/10/12 03:43:45;;;;;;;5.90;3.20;;;;;;;4.86;74.62;100805.98;1811165;79;21719;-77
2022/10/12 03:46:52;;;;;;;7.85;3.25;;;;;;;4.84;74.70;100812.86;1811047;79;21171;-77
2022/10/12 03:49:59;;;;;;;8.45;3.52;;;;;;;4.87;74.60;100804.98;1811273;79;21169;-77
2022/10/12 03:53:05;;;;;;;9.15;3.55;;;;;;;4.85;74.68;100809.19;1811269;79;21196;-77
2022/10/12 03:56:11;;;;;;;7.30;3.52;;;;;;;4.91;74.70;100807.81;1809738;79;21235;-77
2022/10/12 03:59:17;;;;;;;8.93;3.40;;;;;;;4.84;74.70;100804.73;1811266;79;21774;-77
2022/10/12 04:02:23;;;;;;;7.33;3.55;;;;;;;4.80;74.81;100797.88;1809942;79;21260;-78
2022/10/12 04:05:29;;;;;;;6.83;3.42;;;;;;;4.81;74.89;100814.49;1808996;79;21188;-78
2022/10/12 04:08:35;;;;;;;6.53;4.00;;;;;;;4.61;75.38;100815.25;1809854;79;21180;-78
2022/10/12 04:11:42;;;;;;;6.85;3.62;;;;;;;4.72;75.68;100820.67;1809733;79;21216;-78
2022/10/12 04:14:48;;;;;;;15.78;3.90;;;;;;;4.77;75.75;100817.09;1811184;79;21180;-78
2022/10/12 04:17:55;;;;;;;9.23;4.17;;;;;;;4.78;75.94;100821.52;1811051;79;21215;-78
2022/10/12 04:21:00;;;;;;;9.30;4.00;;;;;;;4.82;75.87;100824.34;1811050;79;21216;-78
2022/10/12 04:23:59;;;;;;;8.60;3.95;;;;;;;4.85;75.98;100822.74;1785287;79;21751;-78
2022/10/12 04:27:05;;;;;;;9.30;3.80;;;;;;;4.88;76.14;100822.47;1811168;79;21184;-78
2022/10/12 04:30:12;;;;;;;7.83;3.72;;;;;;;4.94;76.31;100822.94;1809751;79;21224;-78
2022/10/12 04:33:18;;;;;;;14.10;4.15;;;;;;;5.01;76.23;100822.81;1810979;79;21208;-78
2022/10/12 04:36:24;;;;;;;8.08;4.60;;;;;;;5.08;76.34;100819.94;1811184;79;21173;-78
2022/10/12 04:39:29;;;;;;;6.70;3.90;;;;;;;5.19;76.32;100821.27;1811160;79;21224;-78
2022/10/12 04:42:35;;;;;;;24.75;4.42;;;;;;;5.35;76.00;100823.04;1810248;79;21652;-78
2022/10/12 04:45:42;;;;;;;13.85;4.30;;;;;;;5.45;75.81;100824.47;1811082;79;21775;-78
2022/10/12 04:48:48;;;;;;;11.80;4.05;;;;;;;5.56;75.86;100832.58;1810848;79;21212;-78
2022/10/12 04:51:53;;;;;;;11.35;4.20;;;;;;;5.61;75.83;100830.83;1811029;79;21142;-78
2022/10/12 04:54:59;;;;;;;7.83;4.28;;;;;;;5.69;75.75;100835.07;1811282;79;21869;-78
2022/10/12 04:58:06;;;;;;;8.08;3.98;;;;;;;5.80;75.66;100843.17;1786048;79;21149;-78
2022/10/12 05:01:11;;;;;;;12.40;3.90;;;;;;;5.86;75.73;100843.98;1779139;80;21181;-78
2022/10/12 05:04:17;;;;;;;8.83;4.05;;;;;;;5.93;75.89;100837.58;1778626;80;21212;-78
2022/10/12 05:07:23;;;;;;;8.78;3.90;;;;;;;6.04;76.05;100848.85;1782816;80;21327;-77
2022/10/12 05:10:30;;;;;;;6.00;3.30;;;;;;;6.20;76.20;100852.44;1783356;80;21470;-77
2022/10/12 05:13:36;;;;;;;6.30;3.00;;;;;;;6.26;76.23;100855.48;1788789;80;21190;-79
2022/10/12 05:16:42;;;;;;;8.23;3.25;;;;;;;6.38;75.92;100862.53;1790052;79;21220;-79
2022/10/12 05:19:48;;;;;;;10.05;3.27;;;;;;;6.62;75.55;100864.92;1778540;80;21785;-79
2022/10/12 05:22:54;;;;;;;6.20;3.42;;;;;;;6.73;75.51;100865.34;1779715;79;21194;-78
2022/10/12 05:26:02;;;;;;;10.53;4.65;;;;;;;6.91;75.11;100871.80;1706406;82;21189;-78
2022/10/12 05:29:09;;;;;;;10.05;3.30;;;;;;;7.10;74.82;100874.22;1722647;82;21192;-78
2022/10/12 05:32:16;;;;;;;11.78;3.20;;;;;;;7.25;74.56;100876.91;1736306;80;21227;-79
2022/10/12 05:35:24;;;;;;;7.97;3.30;;;;;;;7.43;74.26;100877.94;1694354;84;21272;-79
2022/10/12 05:38:34;;;;;;;13.18;3.15;;;;;;;7.53;74.02;100877.94;1720450;82;21166;-78
2022/10/12 05:41:40;;;;;;;12.70;3.65;;;;;;;7.72;73.53;100875.72;1713138;82;21233;-78
2022/10/12 05:44:46;;;;;;;8.33;2.77;;;;;;;7.91;73.01;100875.70;1734189;82;21470;-78
2022/10/12 05:47:53;;;;;;;3.98;2.70;;;;;;;8.09;72.10;100881.27;1741034;80;21791;-80
2022/10/12 05:51:00;;;;;;;4.65;2.92;;;;;;;8.23;71.53;100880.42;1709799;83;21191;-78
2022/10/12 05:54:07;;;;;;;9.05;3.40;;;;;;;8.36;71.48;100887.30;1693230;83;21265;-79
2022/10/12 05:57:14;;;;;;;5.80;2.67;;;;;;;8.53;71.30;100886.19;1708607;83;21189;-79
2022/10/12 06:00:20;;;;;;;6.12;2.83;;;;;;;8.70;70.99;100885.38;1711159;83;21178;-79
2022/10/12 06:03:27;;;;;;;6.65;2.60;;;;;;;8.72;70.82;100886.11;1710526;83;21247;-77
2022/10/12 06:06:34;;;;;;;8.05;2.95;;;;;;;8.94;70.29;100892.55;1743997;80;21850;-77
2022/10/12 06:09:39;;;;;;;8.88;2.60;;;;;;;9.08;69.73;100889.81;1727016;82;21230;-78
2022/10/12 06:12:46;;;;;;;4.83;2.10;;;;;;;9.25;69.47;100886.73;1729038;81;21537;-78
2022/10/12 06:15:53;;;;;;;5.90;2.20;;;;;;;9.46;68.32;100890.05;1712745;82;21173;-78
2022/10/12 06:18:58;;;;;;;12.28;2.75;;;;;;;9.58;67.35;100891.18;1730479;82;21185;-78
2022/10/12 06:22:04;;;;;;;4.78;2.80;;;;;;;9.65;66.08;100893.66;1708289;82;22376;-77
2022/10/12 06:25:10;;;;;;;5.22;2.52;;;;;;;9.83;65.46;100894.98;1743027;81;21229;-77
2022/10/12 06:28:15;;;;;;;5.12;2.30;;;;;;;10.06;63.87;100896.72;1718161;82;21233;-77
2022/10/12 06:31:21;;;;;;;3.47;2.00;;;;;;;10.16;62.15;100897.48;1754572;81;21177;-77
2022/10/12 06:34:26;;;;;;;2.58;1.52;;;;;;;10.38;61.05;100898.36;1750107;81;21193;-78
2022/10/12 06:37:32;;;;;;;4.22;1.90;;;;;;;10.59;60.15;100900.73;1752184;80;21240;-80
2022/10/12 06:40:41;;;;;;;5.05;2.40;;;;;;;10.79;59.13;100910.92;1757795;80;21197;-77
2022/10/12 06:43:48;;;;;;;4.25;1.87;;;;;;;11.00;58.35;100906.39;1727936;82;21237;-77
2022/10/12 06:46:54;;;;;;;4.25;2.00;;;;;;;11.10;57.28;100909.84;1729757;82;21209;-80
2022/10/12 06:50:00;;;;;;;3.33;1.85;;;;;;;11.18;56.92;100913.13;1724966;82;21189;-79
2022/10/12 06:53:06;;;;;;;4.12;2.00;;;;;;;11.26;56.69;100916.77;1748332;80;21303;-79
2022/10/12 06:56:18;;;;;;;9.50;2.10;;;;;;;11.35;55.55;100919.02;1735295;82;21187;-79
2022/10/12 06:59:24;;;;;;;4.00;2.00;;;;;;;11.50;54.52;100923.34;1734039;81;21201;-78
2022/10/12 07:02:32;;;;;;;3.98;1.75;;;;;;;11.61;54.58;100914.79;1693574;81;21548;-78
2022/10/12 07:05:39;;;;;;;2.12;1.50;;;;;;;11.70;54.10;100919.26;1726201;81;21260;-79
2022/10/12 07:08:47;;;;;;;3.98;2.05;;;;;;;11.82;54.01;100911.61;1728014;81;21194;-78
2022/10/12 07:11:54;;;;;;;3.42;1.95;;;;;;;11.90;52.64;100910.74;1707429;81;21158;-77
2022/10/12 07:15:02;;;;;;;8.15;1.60;;;;;;;11.96;53.30;100910.94;1714313;81;21209;-78
2022/10/12 07:18:11;;;;;;;4.85;2.10;;;;;;;12.02;52.42;100904.77;1716675;81;21190;-78
2022/10/12 07:21:35;;;;;;;4.83;2.00;;;;;;;12.15;53.09;100900.66;1711183;81;21213;-79
2022/10/12 07:24:41;;;;;;;2.83;1.60;;;;;;;12.26;52.17;100906.63;1699145;83;21549;-78
2022/10/12 07:27:47;;;;;;;7.95;1.75;;;;;;;12.33;51.50;100898.59;1717190;81;21205;-77
2022/10/12 07:30:53;;;;;;;5.92;2.15;;;;;;;12.47;51.23;100900.63;1714174;81;21218;-78
2022/10/12 07:33:58;;;;;;;4.53;2.25;;;;;;;12.50;51.69;100903.00;1714587;81;21171;-78
2022/10/12 07:37:00;;;;;;;5.12;1.82;;;;;;;12.67;52.40;100905.72;1720396;81;21194;-79
2022/10/12 07:40:07;;;;;;;3.33;1.67;;;;;;;12.83;52.63;100902.91;1721054;81;21807;-79
2022/10/12 07:43:13;;;;;;;7.12;1.77;;;;;;;13.04;53.18;100901.81;1714910;81;21198;-79
2022/10/12 07:46:18;;;;;;;5.62;2.02;;;;;;;13.13;53.05;100907.28;1705487;83;21527;-79
2022/10/12 07:49:24;;;;;;;2.72;1.60;;;;;;;13.28;53.53;100904.14;1719947;81;21367;-79
2022/10/12 07:52:31;;;;;;;3.72;1.85;;;;;;;13.37;53.85;100903.59;1711152;81;21764;-79
2022/10/12 07:55:37;;;;;;;3.95;1.82;;;;;;;13.50;53.55;100906.09;1740693;81;21184;-79
2022/10/12 07:58:43;;;;;;;4.80;1.77;;;;;;;13.55;52.97;100900.05;1722204;82;21739;-78
2022/10/12 08:01:50;;;;;;;4.45;1.70;;;;;;;13.60;52.75;100901.73;1700624;83;21201;-78
2022/10/12 08:04:56;;;;;;;3.67;1.77;;;;;;;13.71;53.65;100899.08;1696678;82;21194;-78
2022/10/12 08:08:03;;;;;;;3.75;1.65;;;;;;;13.76;51.04;100898.00;1730707;81;21212;-78
2022/10/12 08:11:12;;;;;;;10.90;1.60;;;;;;;13.90;49.62;100898.58;1698740;83;21201;-79
2022/10/12 08:14:21;;;;;;;2.62;1.40;;;;;;;13.93;47.78;100896.85;1713685;83;21429;-76
2022/10/12 08:17:26;;;;;;;2.12;1.40;;;;;;;13.79;48.11;100894.37;1705902;83;21191;-77
2022/10/12 08:20:32;;;;;;;4.87;1.57;;;;;;;14.01;46.98;100895.39;1701698;83;21201;-78
2022/10/12 08:23:37;;;;;;;2.83;1.60;;;;;;;14.02;47.15;100894.37;1705381;83;21201;-78
2022/10/12 08:26:43;;;;;;;2.27;1.50;;;;;;;14.25;47.15;100893.46;1709527;83;21189;-77
2022/10/12 08:29:49;;;;;;;3.12;1.57;;;;;;;13.89;46.78;100896.03;1715653;83;22401;-76
2022/10/12 08:32:55;;;;;;;5.33;1.55;;;;;;;14.12;47.75;100899.62;1715028;83;21213;-77
2022/10/12 08:36:02;;;;;;;10.18;3.77;;;;;;;14.18;47.90;100893.36;1709907;83;21502;-77
2022/10/12 08:39:08;;;;;;;12.88;4.55;;;;;;;14.16;47.58;100888.58;1711600;83;21319;-77
2022/10/12 08:42:55;;;;;;;8.85;2.50;;;;;;;14.28;47.85;100886.22;1700039;83;21201;-77
2022/10/12 08:46:03;;;;;;;5.80;2.10;;;;;;;14.36;48.31;100886.67;1695948;83;21233;-77
2022/10/12 08:49:25;;;;;;;4.83;2.42;;;;;;;14.54;47.96;100890.81;1714520;83;21707;-78
2022/10/12 08:52:42;;;;;;;6.17;2.20;;;;;;;14.63;46.45;100894.84;1708456;81;21231;-77
2022/10/12 08:55:52;;;;;;;4.50;2.20;;;;;;;14.53;46.72;100885.48;1709560;83;21824;-78
2022/10/12 08:58:59;;;;;;;3.92;1.90;;;;;;;14.56;46.22;100895.59;1708708;83;21225;-78
2022/10/12 09:02:52;;;;;;;6.05;2.00;;;;;;;14.71;46.81;100890.63;1702224;83;21216;-80
2022/10/12 09:06:18;;;;;;;4.83;1.95;;;;;;;14.61;48.06;100887.30;1706608;83;21276;-78
2022/10/12 09:09:35;;;;;;;4.10;1.50;;;;;;;14.71;48.55;100885.97;1708055;83;21220;-78
2022/10/12 09:13:01;;;;;;;6.30;1.67;;;;;;;14.87;47.85;100886.32;1711193;83;21213;-79
2022/10/12 09:16:20;;;;;;;9.95;2.00;;;;;;;14.90;46.32;100881.79;1705083;83;21264;-78
2022/10/12 09:19:43;;;;;;;5.75;1.98;;;;;;;14.94;43.31;100881.75;1716140;83;21233;-80
2022/10/12 09:22:57;;;;;;;2.87;1.65;;;;;;;15.21;43.48;100872.46;1676542;83;21221;-79
2022/10/12 09:26:27;;;;;;;7.05;1.77;;;;;;;15.26;43.33;100875.48;1709462;83;21255;-79
2022/10/12 09:29:34;;;;;;;3.90;2.10;;;;;;;15.36;42.29;100875.17;1684883;85;21268;-78
2022/10/12 09:33:00;;;;;;;8.63;2.15;;;;;;;15.37;41.72;100870.84;1690293;85;22373;-77
2022/10/12 09:36:05;;;;;;;3.40;1.70;;;;;;;15.36;41.80;100867.76;1622296;86;21573;-78
2022/10/12 09:39:14;;;;;;;6.67;2.00;;;;;;;15.60;41.13;100866.55;1677850;85;21793;-79
2022/10/12 09:42:21;;;;;;;4.87;1.82;;;;;;;15.67;40.35;100862.53;1695719;83;21260;-78
2022/10/12 09:45:28;;;;;;;10.32;2.02;;;;;;;15.53;39.52;100865.10;1700245;83;21813;-77
2022/10/12 09:48:34;;;;;;;5.20;2.12;;;;;;;15.60;39.52;100859.65;1711600;83;21225;-77
2022/10/12 09:51:44;;;;;;;6.55;2.05;;;;;;;15.77;39.27;100857.53;1691714;83;21837;-78
2022/10/12 09:54:56;;;;;;;4.25;1.90;;;;;;;15.76;39.06;100853.05;1677608;85;21905;-77
2022/10/12 09:58:05;;;;;;;7.40;1.80;;;;;;;15.75;39.62;100855.48;1703628;83;21212;-77
2022/10/12 10:01:35;;;;;;;8.35;1.75;;;;;;;15.77;40.11;100854.25;1674524;85;21209;-77
2022/10/12 10:04:42;;;;;;;4.42;1.92;;;;;;;15.81;39.41;100844.53;1707282;83;21215;-77
2022/10/12 10:07:49;;;;;;;4.72;2.00;;;;;;;15.84;39.77;100847.41;1687471;83;21232;-78
2022/10/12 10:10:59;;;;;;;3.33;1.50;;;;;;;15.65;39.12;100840.64;1700931;82;21233;-77
2022/10/12 10:14:07;;;;;;;7.42;1.65;;;;;;;16.09;37.24;100841.81;1720348;82;21253;-77
2022/10/12 10:17:14;;;;;;;7.65;1.60;;;;;;;16.01;37.63;100843.86;1720152;82;21759;-77
2022/10/12 10:20:23;;;;;;;4.33;1.90;;;;;;;16.05;37.79;100839.65;1727011;82;21193;-78
2022/10/12 10:23:37;;;;;;;3.15;1.70;;;;;;;16.10;36.86;100828.34;1716088;82;21213;-78
2022/10/12 10:27:07;;;;;;;4.08;1.92;;;;;;;16.07;37.67;100832.86;1714650;82;22150;-79
2022/10/12 10:30:25;;;;;;;5.53;2.10;;;;;;;16.19;36.76;100826.81;1710398;83;21198;-78
2022/10/12 10:33:33;;;;;;;8.45;1.42;;;;;;;16.34;35.69;100814.61;1711468;82;21210;-79
2022/10/12 10:36:44;;;;;;;4.90;1.32;;;;;;;16.68;35.33;100824.47;1708594;83;21193;-77
2022/10/12 10:39:56;;;;;;;5.92;1.42;;;;;;;16.66;35.00;100821.08;1709336;83;21607;-77
2022/10/12 10:43:05;;;;;;;4.00;1.98;;;;;;;16.65;35.41;100819.34;1709041;83;21321;-77
2022/10/12 10:46:10;;;;;;;3.25;1.65;;;;;;;16.81;34.94;100813.00;1711389;82;21226;-77
2022/10/12 10:49:18;;;;;;;8.53;1.75;;;;;;;16.91;35.91;100810.39;1709127;83;22350;-78
2022/10/12 10:52:41;;;;;;;7.83;1.52;;;;;;;16.94;35.69;100816.37;1676260;83;21205;-77
2022/10/12 10:56:09;;;;;;;4.78;1.45;;;;;;;17.00;34.11;100811.39;1711356;82;21217;-78
2022/10/12 10:59:20;;;;;;;7.72;1.85;;;;;;;17.03;34.47;100806.84;1731615;82;21142;-78
2022/10/12 11:02:35;;;;;;;3.05;1.37;;;;;;;16.96;35.07;100807.86;1720758;82;21239;-78
2022/10/12 11:05:48;;;;;;;4.42;1.60;;;;;;;16.89;35.27;100809.23;1712043;83;21823;-78
2022/10/12 11:08:57;;;;;;;3.37;1.50;;;;;;;16.89;35.27;100802.31;1711939;82;21351;-78
2022/10/12 11:12:10;;;;;;;7.58;3.30;;;;;;;16.92;35.76;100802.42;1719879;82;21784;-78
2022/10/12 11:15:31;;;;;;;1.80;1.32;;;;;;;16.94;35.95;100801.17;1711497;82;21180;-78
2022/10/12 11:18:52;;;;;;;8.10;1.95;;;;;;;16.92;36.22;100804.64;1694798;83;21190;-78
2022/10/12 11:22:04;;;;;;;3.25;1.60;;;;;;;16.91;36.06;100791.05;1723150;83;21830;-78
2022/10/12 11:25:30;;;;;;;4.60;1.40;;;;;;;16.93;36.03;100795.30;1704083;82;21257;-78
2022/10/12 11:28:38;;;;;;;5.37;1.62;;;;;;;16.61;37.02;100794.92;1711590;83;21238;-78
2022/10/12 11:31:46;;;;;;;6.08;1.50;;;;;;;16.96;36.64;100789.37;1707061;84;21237;-78
2022/10/12 11:34:59;;;;;;;3.72;1.90;;;;;;;16.93;36.83;100792.53;1708326;84;21235;-78
2022/10/12 11:38:09;;;;;;;3.72;1.37;;;;;;;16.64;37.05;100785.89;1726395;82;21216;-79
2022/10/12 11:41:32;;;;;;;4.25;1.82;;;;;;;16.87;37.22;100794.75;1699732;82;22470;-79
2022/10/12 11:44:54;;;;;;;3.15;1.60;;;;;;;16.76;37.35;100785.67;1682365;85;21775;-78
2022/10/12 11:48:07;;;;;;;;;;;;;;;16.52;37.87;100785.63;1696594;84;21728;-78
2022/10/12 11:51:13;;;;;;;2.12;1.20;;;;;;;16.49;38.54;100789.63;1728136;83;20198;-77
2022/10/12 11:54:29;;;;;;;2.75;1.45;;;;;;;16.46;38.53;100791.41;1737569;81;21185;-77
2022/10/12 11:57:36;;;;;;;5.20;1.77;;;;;;;16.57;38.42;100793.62;1722190;81;21201;-78
2022/10/12 12:01:02;;;;;;;5.35;1.60;;;;;;;16.81;38.60;100787.29;1679782;85;21204;-79
2022/10/12 12:04:32;;;;;;;3.35;1.70;;;;;;;16.78;38.54;100787.69;1681524;85;21759;-79
2022/10/12 12:07:57;;;;;;;5.35;1.50;;;;;;;16.87;37.89;100789.22;1691489;84;21284;-78
2022/10/12 12:11:12;;;;;;;6.12;1.55;;;;;;;16.73;38.23;100784.16;1700629;83;21189;-78
2022/10/12 12:14:38;;;;;;;5.15;1.70;;;;;;;16.64;38.55;100790.03;1755929;80;21548;-77
2022/10/12 12:17:45;;;;;;;5.53;1.98;;;;;;;16.67;38.71;100791.02;1775373;80;21189;-77
2022/10/12 12:20:56;;;;;;;3.72;1.85;;;;;;;16.90;37.66;100787.44;1757149;80;21184;-77
2022/10/12 12:24:02;;;;;;;4.05;1.87;;;;;;;16.81;37.88;100785.38;1739693;82;21203;-77
2022/10/12 12:27:08;;;;;;;6.03;2.17;;;;;;;16.84;38.01;100784.09;1723534;82;21208;-77
2022/10/12 12:30:28;;;;;;;6.33;2.15;;;;;;;16.94;38.09;100779.56;1739818;82;21244;-78
2022/10/12 12:33:41;;;;;;;3.87;2.00;;;;;;;17.01;37.70;100781.30;1746228;82;21244;-78
2022/10/12 12:36:48;;;;;;;10.20;2.40;;;;;;;17.09;38.21;100783.89;1722011;83;21227;-78
2022/10/12 12:39:42;;;;;;;6.97;2.22;;;;;;;17.18;37.92;100780.95;1722810;82;21208;-77
2022/10/12 12:42:34;;;;;;;9.28;2.05;;;;;;;17.14;37.60;100765.84;1723070;82;21299;-77
2022/10/12 12:45:40;;;;;;;4.08;2.12;;;;;;;17.03;37.99;100772.30;1722950;83;21216;-78
2022/10/12 12:48:54;;;;;;;6.22;3.10;;;;;;;16.98;38.03;100767.89;1718497;83;21818;-79
2022/10/12 12:51:59;;;;;;;5.67;2.20;;;;;;;17.00;38.09;100771.85;1723141;83;21200;-79
2022/10/12 12:55:22;;;;;;;4.83;2.12;;;;;;;17.03;37.91;100762.63;1722768;82;21495;-78
2022/10/12 12:58:56;;;;;;;9.70;2.70;;;;;;;16.78;39.14;100762.83;1717990;83;21271;-77
2022/10/12 13:02:45;;;;;;;6.28;3.00;;;;;;;16.79;38.31;100765.38;1718960;82;21209;-78
2022/10/12 13:06:17;;;;;;;5.83;2.85;;;;;;;16.85;38.49;100760.96;1722506;83;21242;-77
2022/10/12 13:09:38;;;;;;;5.35;2.62;;;;;;;16.78;38.37;100765.59;1724975;82;21735;-78
2022/10/12 13:12:49;;;;;;;8.13;2.40;;;;;;;16.72;38.62;100760.90;1726068;82;21200;-78
2022/10/12 13:16:25;;;;;;;5.78;2.85;;;;;;;16.56;38.71;100767.06;1738009;81;21844;-79
2022/10/12 13:19:32;;;;;;;7.78;2.20;;;;;;;16.40;39.47;100766.00;1699911;83;21489;-79
2022/10/12 13:22:38;;;;;;;5.10;2.55;;;;;;;16.61;39.39;100762.31;1786202;80;21194;-78
2022/10/12 13:25:53;;;;;;;9.03;3.10;;;;;;;16.70;39.22;100764.34;1769800;80;21221;-79
2022/10/12 13:29:00;;;;;;;9.70;3.37;;;;;;;16.72;39.22;100763.13;1784900;80;21146;-78
2022/10/12 13:32:07;;;;;;;8.38;2.58;;;;;;;16.73;38.84;100758.45;1771505;79;21767;-77
2022/10/12 13:35:20;;;;;;;8.75;3.27;;;;;;;16.65;38.98;100755.30;1770267;81;21196;-77
2022/10/12 13:38:34;;;;;;;7.08;2.98;;;;;;;16.73;38.89;100760.69;1755736;79;21236;-78
2022/10/12 13:41:39;;;;;;;7.47;2.90;;;;;;;16.83;38.81;100757.53;1776932;79;21152;-78
2022/10/12 13:44:45;;;;;;;11.40;2.87;;;;;;;16.85;38.80;100756.81;1783598;79;21652;-78
2022/10/12 13:47:50;;;;;;;7.70;2.65;;;;;;;16.83;39.38;100756.16;1784826;79;21684;-77
2022/10/12 13:51:08;;;;;;;8.80;2.90;;;;;;;16.84;39.38;100763.38;1796439;79;21700;-77
2022/10/12 13:54:31;;;;;;;10.90;2.50;;;;;;;16.80;39.77;100757.97;1803072;79;21157;-77
2022/10/12 13:57:49;;;;;;;5.95;3.05;;;;;;;16.71;40.10;100750.88;1802521;79;21216;-77
2022/10/12 14:00:55;;;;;;;5.30;2.70;;;;;;;16.74;40.75;100749.95;1800806;79;21177;-77
2022/10/12 14:04:10;;;;;;;8.28;3.00;;;;;;;16.63;41.01;100750.52;1802593;79;21185;-79
2022/10/12 14:07:35;;;;;;;8.25;3.02;;;;;;;16.50;41.27;100756.81;1801516;79;21201;-77
2022/10/12 14:10:43;;;;;;;12.37;3.02;;;;;;;16.43;41.23;100750.95;1798616;79;21730;-77
2022/10/12 14:13:51;;;;;;;4.53;2.80;;;;;;;16.38;42.51;100750.19;1800608;79;21201;-77
2022/10/12 14:17:06;;;;;;;5.45;2.72;;;;;;;16.25;41.93;100752.86;1784214;79;21203;-78
2022/10/12 14:20:42;;;;;;;5.15;2.95;;;;;;;16.20;42.06;100753.47;1768813;81;21190;-77
2022/10/12 14:23:56;;;;;;;6.92;2.75;;;;;;;16.17;42.89;100755.77;1770507;81;21193;-78
2022/10/12 14:27:05;;;;;;;9.13;2.80;;;;;;;16.13;45.54;100760.83;1770357;81;21193;-78
2022/10/12 14:30:30;;;;;;;15.25;2.98;;;;;;;16.05;44.00;100761.86;1769418;81;21295;-78
2022/10/12 14:33:35;;;;;;;11.57;2.80;;;;;;;15.91;43.59;100753.16;1769888;81;21177;-77
2022/10/12 14:36:41;;;;;;;10.43;3.00;;;;;;;15.76;44.02;100754.64;1769839;81;21213;-78
2022/10/12 14:39:46;;;;;;;14.83;2.77;;;;;;;15.76;44.39;100749.13;1769734;81;21204;-78
2022/10/12 14:43:12;;;;;;;14.38;2.55;;;;;;;15.63;47.01;100749.50;1769873;81;21263;-78
2022/10/12 14:46:18;;;;;;;12.35;2.20;;;;;;;15.50;52.27;100749.70;1770287;81;21256;-78
2022/10/12 14:49:33;;;;;;;6.97;2.52;;;;;;;15.25;53.96;100754.77;1768778;81;21181;-78